Terminal Aerodrome Forecast
Issued by NWS Mt. Holly, NJ

Home | Current Version | Previous Version | Text Only | Print | Product List | Glossary On
Versions: 1 2 3 4 5 6 7 8 9 10 11 12 13 14 15 16 17 18 19 20
122
FTUS41 KPHI 261724
TAFABE
TAF
KABE 261724Z 2618/2718 17005KT P6SM SCT025 BKN050
      TEMPO 2618/2620 BKN025
     FM270000 VRB03KT P6SM FEW040 SCT090
     FM270400 VRB03KT P6SM BKN025 BKN120
     FM270800 VRB03KT P6SM OVC015
     FM271500 22005KT P6SM BKN025=

USA.gov is the U.S. government's official web portal to all federal, state and local government web resources and services.